Perronville, Michigan
Current Conditions -  °F | °C
As of 8:35 AM on Friday 24 Oct 2014 (Local Time) from KESC Reporting Station
Overcast Overcast  
Wind Chill: 45°   Ceiling: 300
Heat Index: 45°   Visibility: 3mi
Dew Point: 43°   Wind: 3mph
Humidity: 93%   Direction: 250°WSW
Pressure: 29.99"   Gusts: NA
Location:  45.8°N, 87.35°W
Report Text: KESC 241335Z AUTO 25003KT 3SM OVC003 07/06 A2999 RMK AO1
Loading
Personal Weather Stations






























Interactive Weather Map
Tropical Storm Tracking
New forecast layout! Learn more

10-Day Weather Forecast

Advertisements
Track Severe Weather on mobile